Bao An Cheng 69 — BVBD5 — position and weather

sailwx.info

Track history (hours):
 
Tides and Currents Weather Stations Pressure Air Temp Water Temp Dewpoint Dewpoint Depression Visibility Wind Speed Wind Dir Waves Ship Positions

Bao An Cheng 69

Last reported at 2015-Apr-25 08:21 UTC. Time now 2015-Apr-28 14:31 UTC.
Position N 40°23' E 121°49'.

Length 121 m; draft 6.7 m.

Type: Cargo ship. MMSI: 412703090.

Date/timePositionNaut miles runAvg speedWind from/ knotsBaromVisibWave heightAir tempDewpointWater temp
2015-Apr-25 08:21N 40°23' E 121°49'6 7.9
2015-Apr-25 07:32N 40°28' E 121°55'10 8.2
2015-Apr-25 06:18N 40°37' E 121°58'10 0.6
2015-Apr-24 12:33N 40°27' E 121°55'  
2015-Apr-20 06:33N 38°18' E 119°46'1010.5
2015-Apr-20 05:33N 38°08' E 119°52'1010.1
2015-Apr-20 04:31N 37°59' E 119°58'9 9.5
2015-Apr-20 03:31N 37°51' E 120°04'9 9.1
2015-Apr-20 02:30N 37°43' E 120°09'8 8.0
2015-Apr-20 01:32N 37°39' E 120°17'1 1.5
2015-Apr-20 00:32N 37°40' E 120°19'0 0.0
2015-Apr-19 23:24N 37°40' E 120°19'0 0.0
2015-Apr-19 22:24N 37°40' E 120°19'0 0.0
2015-Apr-19 21:24N 37°40' E 120°19'0 0.0
2015-Apr-19 20:18N 37°40' E 120°19'0 0.0
2015-Apr-19 19:24N 37°40' E 120°19'0 0.0
2015-Apr-19 18:24N 37°40' E 120°19'0 0.0
2015-Apr-19 17:30N 37°40' E 120°19'0 0.0
2015-Apr-19 16:21N 37°40' E 120°19'0 0.0
2015-Apr-19 15:27N 37°40' E 120°19'0 0.0
2015-Apr-19 14:27N 37°40' E 120°19'0 0.0
2015-Apr-19 12:33N 37°40' E 120°19'0 0.0
2015-Apr-19 11:33N 37°40' E 120°19'0 0.0
2015-Apr-19 10:33N 37°40' E 120°19'0 0.0
2015-Apr-19 09:33N 37°40' E 120°19'0 0.0
2015-Apr-19 08:33N 37°40' E 120°19'0 0.0
2015-Apr-19 07:21N 37°40' E 120°19'0 0.0
2015-Apr-19 06:21N 37°40' E 120°19'0 0.0
2015-Apr-19 05:33N 37°40' E 120°19'0 0.0
2015-Apr-19 04:33N 37°40' E 120°19'0 0.0
2015-Apr-19 03:27N 37°40' E 120°19'0 0.0
2015-Apr-19 02:33N 37°40' E 120°19'0 0.0
2015-Apr-19 01:21N 37°40' E 120°19'0 0.0
2015-Apr-19 00:32N 37°40' E 120°19'0 0.0
2015-Apr-18 23:34N 37°40' E 120°19'0 0.0
2015-Apr-18 22:33N 37°40' E 120°19'0 0.0
2015-Apr-18 21:32N 37°40' E 120°19'0 0.0
2015-Apr-18 20:33N 37°40' E 120°19'0 0.0
2015-Apr-18 19:33N 37°40' E 120°19'0 0.2
2015-Apr-18 18:33N 37°40' E 120°18'5 5.0
2015-Apr-18 17:33N 37°41' E 120°12'9 9.0
2015-Apr-18 16:32N 37°48' E 120°05'9 8.9
2015-Apr-18 15:33N 37°56' E 120°00'9 8.7
2015-Apr-18 14:33N 38°04' E 119°55'8 0.2
2015-Apr-17 01:32N 37°57' E 119°60'16 1.0
2015-Apr-16 09:27N 37°43' E 120°10'1010.4
2015-Apr-16 08:32N 37°52' E 120°03'1110.6
2015-Apr-16 07:32N 38°01' E 119°57'1010.4
2015-Apr-16 06:33N 38°10' E 119°51'1010.2
2015-Apr-16 05:33N 38°19' E 119°45'11 9.8
2015-Apr-16 04:24N 38°29' E 119°38'  
Track history (hours):
 
Tides and Currents Weather Stations Pressure Air Temp Water Temp Dewpoint Dewpoint Depression Visibility Wind Speed Wind Dir Waves Ship Positions

Bao An Cheng 69

Last reported at 2015-Apr-25 08:21 UTC. Time now 2015-Apr-28 14:31 UTC.
Position N 40°23' E 121°49'.

Length 121 m; draft 6.7 m.

Type: Cargo ship. MMSI: 412703090.

Date/timePositionNaut miles runAvg speedWind from/ knotsBaromVisibWave heightAir tempDewpointWater temp
2015-Apr-25 08:21N 40°23' E 121°49'6 7.9
2015-Apr-25 07:32N 40°28' E 121°55'10 8.2
2015-Apr-25 06:18N 40°37' E 121°58'10 0.6
2015-Apr-24 12:33N 40°27' E 121°55'  
2015-Apr-20 06:33N 38°18' E 119°46'1010.5
2015-Apr-20 05:33N 38°08' E 119°52'1010.1
2015-Apr-20 04:31N 37°59' E 119°58'9 9.5
2015-Apr-20 03:31N 37°51' E 120°04'9 9.1
2015-Apr-20 02:30N 37°43' E 120°09'8 8.0
2015-Apr-20 01:32N 37°39' E 120°17'1 1.5
2015-Apr-20 00:32N 37°40' E 120°19'0 0.0
2015-Apr-19 23:24N 37°40' E 120°19'0 0.0
2015-Apr-19 22:24N 37°40' E 120°19'0 0.0
2015-Apr-19 21:24N 37°40' E 120°19'0 0.0
2015-Apr-19 20:18N 37°40' E 120°19'0 0.0
2015-Apr-19 19:24N 37°40' E 120°19'0 0.0
2015-Apr-19 18:24N 37°40' E 120°19'0 0.0
2015-Apr-19 17:30N 37°40' E 120°19'0 0.0
2015-Apr-19 16:21N 37°40' E 120°19'0 0.0
2015-Apr-19 15:27N 37°40' E 120°19'0 0.0
2015-Apr-19 14:27N 37°40' E 120°19'0 0.0
2015-Apr-19 12:33N 37°40' E 120°19'0 0.0
2015-Apr-19 11:33N 37°40' E 120°19'0 0.0
2015-Apr-19 10:33N 37°40' E 120°19'0 0.0
2015-Apr-19 09:33N 37°40' E 120°19'0 0.0
2015-Apr-19 08:33N 37°40' E 120°19'0 0.0
2015-Apr-19 07:21N 37°40' E 120°19'0 0.0
2015-Apr-19 06:21N 37°40' E 120°19'0 0.0
2015-Apr-19 05:33N 37°40' E 120°19'0 0.0
2015-Apr-19 04:33N 37°40' E 120°19'0 0.0
2015-Apr-19 03:27N 37°40' E 120°19'0 0.0
2015-Apr-19 02:33N 37°40' E 120°19'0 0.0
2015-Apr-19 01:21N 37°40' E 120°19'0 0.0
2015-Apr-19 00:32N 37°40' E 120°19'0 0.0
2015-Apr-18 23:34N 37°40' E 120°19'0 0.0
2015-Apr-18 22:33N 37°40' E 120°19'0 0.0
2015-Apr-18 21:32N 37°40' E 120°19'0 0.0
2015-Apr-18 20:33N 37°40' E 120°19'0 0.0
2015-Apr-18 19:33N 37°40' E 120°19'0 0.2
2015-Apr-18 18:33N 37°40' E 120°18'5 5.0
2015-Apr-18 17:33N 37°41' E 120°12'9 9.0
2015-Apr-18 16:32N 37°48' E 120°05'9 8.9
2015-Apr-18 15:33N 37°56' E 120°00'9 8.7
2015-Apr-18 14:33N 38°04' E 119°55'8 0.2
2015-Apr-17 01:32N 37°57' E 119°60'16 1.0
2015-Apr-16 09:27N 37°43' E 120°10'1010.4
2015-Apr-16 08:32N 37°52' E 120°03'1110.6
2015-Apr-16 07:32N 38°01' E 119°57'1010.4
2015-Apr-16 06:33N 38°10' E 119°51'1010.2
2015-Apr-16 05:33N 38°19' E 119°45'11 9.8
2015-Apr-16 04:24N 38°29' E 119°38'  

Dump ship's entire track history